createdAt,value
2018-02-24T00:01:09.379Z,10.90
2018-02-24T00:03:37.654Z,10.90
2018-02-24T00:06:05.914Z,10.80
2018-02-24T00:08:33.423Z,10.80
2018-02-24T00:11:01.674Z,10.80
2018-02-24T00:13:29.210Z,10.80
2018-02-24T00:15:56.714Z,10.80
2018-02-24T00:18:24.975Z,10.70
2018-02-24T00:20:52.471Z,10.70
2018-02-24T00:23:19.993Z,10.70
2018-02-24T00:25:47.475Z,10.70
2018-02-24T00:28:14.951Z,10.70
2018-02-24T00:30:42.424Z,10.70
2018-02-24T00:33:09.900Z,10.70
2018-02-24T00:35:37.377Z,10.60
2018-02-24T00:38:04.877Z,10.60
2018-02-24T00:40:32.358Z,10.60
2018-02-24T00:42:59.841Z,10.60
2018-02-24T00:45:28.110Z,10.50
2018-02-24T00:47:56.389Z,10.50
2018-02-24T00:50:23.930Z,10.50
2018-02-24T00:52:51.430Z,10.50
2018-02-24T00:55:18.929Z,10.50
2018-02-24T00:57:47.183Z,10.40
2018-02-24T01:00:14.683Z,10.40
2018-02-24T01:02:42.918Z,10.40
2018-02-24T01:05:10.398Z,10.40
2018-02-24T01:07:37.887Z,10.40
2018-02-24T01:10:07.106Z,10.40
2018-02-24T01:12:34.581Z,10.30
2018-02-24T01:15:02.842Z,10.30
2018-02-24T01:17:30.323Z,10.30
2018-02-24T01:19:57.802Z,10.30
2018-02-24T01:22:25.287Z,10.30
2018-02-24T01:24:52.749Z,10.20
2018-02-24T01:27:20.254Z,10.20
2018-02-24T01:29:47.722Z,10.20
2018-02-24T01:32:15.212Z,10.20
2018-02-24T01:34:42.685Z,10.20
2018-02-24T01:37:10.190Z,10.10
2018-02-24T01:39:37.667Z,10.10
2018-02-24T01:42:05.148Z,10.10
2018-02-24T01:44:33.408Z,10.10
2018-02-24T01:47:00.885Z,10.10
2018-02-24T01:49:28.371Z,10.10
2018-02-24T01:51:55.877Z,10.10
2018-02-24T01:54:23.353Z,10.00
2018-02-24T01:56:50.834Z,10.00
2018-02-24T01:59:18.302Z,10.00
2018-02-24T02:01:46.569Z,9.90
2018-02-24T02:04:14.832Z,9.90
2018-02-24T02:06:42.375Z,9.90
2018-02-24T02:09:09.845Z,9.90
2018-02-24T02:11:37.350Z,9.90
2018-02-24T02:14:05.595Z,9.90
2018-02-24T02:16:33.110Z,9.90
2018-02-24T02:19:01.335Z,9.80
2018-02-24T02:21:28.818Z,9.80
2018-02-24T02:23:56.295Z,9.80
2018-02-24T02:26:23.768Z,9.80
2018-02-24T02:28:51.226Z,9.80
2018-02-24T02:31:18.702Z,9.80
2018-02-24T02:33:46.163Z,9.70
2018-02-24T02:36:13.714Z,9.70
2018-02-24T02:38:41.222Z,9.70
2018-02-24T02:41:08.692Z,9.70
2018-02-24T02:43:36.230Z,9.70
2018-02-24T02:46:03.731Z,9.70
2018-02-24T02:48:31.300Z,9.70
2018-02-24T02:50:58.766Z,9.60
2018-02-24T02:53:26.257Z,9.60
2018-02-24T02:55:53.739Z,9.60
2018-02-24T02:58:21.290Z,9.60
2018-02-24T03:00:48.750Z,9.60
2018-02-24T03:03:16.253Z,9.50
2018-02-24T03:05:43.743Z,9.60
2018-02-24T03:08:12.000Z,9.50
2018-02-24T03:10:39.499Z,9.50
2018-02-24T03:13:07.782Z,9.60
2018-02-24T03:15:36.714Z,9.50
2018-02-24T03:18:04.191Z,9.50
2018-02-24T03:20:31.668Z,9.50
2018-02-24T03:22:59.199Z,9.50
2018-02-24T03:25:27.458Z,9.40
2018-02-24T03:27:54.941Z,9.40
2018-02-24T03:30:22.432Z,9.40
2018-02-24T03:32:50.660Z,9.40
2018-02-24T03:35:18.131Z,9.40
2018-02-24T03:37:45.649Z,9.30
2018-02-24T03:40:13.134Z,9.40
2018-02-24T03:42:41.391Z,9.30
2018-02-24T03:45:08.895Z,9.30
2018-02-24T03:47:37.143Z,9.40
2018-02-24T03:50:04.649Z,9.30
2018-02-24T03:52:32.910Z,9.30
2018-02-24T03:55:00.407Z,9.30
2018-02-24T03:57:28.640Z,9.20
2018-02-24T03:59:56.123Z,9.20
2018-02-24T04:02:24.351Z,9.20
2018-02-24T04:04:52.615Z,9.20
2018-02-24T04:07:20.115Z,9.20
2018-02-24T04:09:48.367Z,9.20
2018-02-24T04:12:15.839Z,9.20
2018-02-24T04:14:43.316Z,9.20
2018-02-24T04:17:10.819Z,9.20
2018-02-24T04:19:38.296Z,9.20
2018-02-24T04:22:05.789Z,9.20
2018-02-24T04:24:33.287Z,9.20
2018-02-24T04:27:00.772Z,9.10
2018-02-24T04:29:28.251Z,9.10
2018-02-24T04:31:56.493Z,9.10
2018-02-24T04:34:23.986Z,9.00
2018-02-24T04:36:51.498Z,9.10
2018-02-24T04:39:19.003Z,9.10
2018-02-24T04:41:46.483Z,9.10
2018-02-24T04:44:13.938Z,9.00
2018-02-24T04:46:41.418Z,9.00
2018-02-24T04:49:08.910Z,9.00
2018-02-24T04:51:36.394Z,9.00
2018-02-24T04:54:03.871Z,9.00
2018-02-24T04:56:32.101Z,9.00
2018-02-24T04:58:59.574Z,8.90
2018-02-24T05:01:27.039Z,8.90
2018-02-24T05:03:54.519Z,8.90
2018-02-24T05:06:22.007Z,8.90
2018-02-24T05:08:49.488Z,8.90
2018-02-24T05:11:16.975Z,8.90
2018-02-24T05:13:44.441Z,8.90
2018-02-24T05:16:11.930Z,8.90
2018-02-24T05:18:40.186Z,8.90
2018-02-24T05:21:07.679Z,8.90
2018-02-24T05:23:35.914Z,8.90
2018-02-24T05:26:03.415Z,8.80
2018-02-24T05:28:30.911Z,8.80
2018-02-24T05:30:59.159Z,8.80
2018-02-24T05:33:26.652Z,8.80
2018-02-24T05:35:54.134Z,8.80
2018-02-24T05:38:22.375Z,8.80
2018-02-24T05:40:49.844Z,8.80
2018-02-24T05:43:17.359Z,8.80
2018-02-24T05:45:44.846Z,8.70
2018-02-24T05:48:13.088Z,8.70
2018-02-24T05:50:40.590Z,8.70
2018-02-24T05:53:08.834Z,8.70
2018-02-24T05:55:36.340Z,8.70
2018-02-24T05:58:03.822Z,8.70
2018-02-24T06:00:32.076Z,8.70
2018-02-24T06:02:59.609Z,8.70
2018-02-24T06:05:27.066Z,8.70
2018-02-24T06:07:55.342Z,8.70
2018-02-24T06:10:23.606Z,8.70
2018-02-24T06:12:51.116Z,8.60
2018-02-24T06:15:19.338Z,8.60
2018-02-24T06:17:46.833Z,8.60
2018-02-24T06:20:14.334Z,8.60
2018-02-24T06:22:42.594Z,8.70
2018-02-24T06:25:10.059Z,8.60
2018-02-24T06:27:37.551Z,8.70
2018-02-24T06:30:05.031Z,8.70
2018-02-24T06:32:33.296Z,8.70
2018-02-24T06:35:00.780Z,8.60
2018-02-24T06:37:28.258Z,8.70
2018-02-24T06:39:56.506Z,8.70
2018-02-24T06:42:24.001Z,8.60
2018-02-24T06:44:51.537Z,8.60
2018-02-24T06:47:19.027Z,8.70
2018-02-24T06:49:46.527Z,8.70
2018-02-24T06:52:14.762Z,8.70
2018-02-24T06:54:42.243Z,8.70
2018-02-24T06:57:09.717Z,8.70
2018-02-24T06:59:37.190Z,8.80
2018-02-24T07:02:04.651Z,8.80
2018-02-24T07:04:32.167Z,8.80
2018-02-24T07:07:00.438Z,8.80
2018-02-24T07:09:27.918Z,8.80
2018-02-24T07:11:55.403Z,8.80
2018-02-24T07:14:23.636Z,8.90
2018-02-24T07:16:51.113Z,8.90
2018-02-24T07:19:18.599Z,8.90
2018-02-24T07:21:46.077Z,8.90
2018-02-24T07:24:13.609Z,8.90
2018-02-24T07:26:41.067Z,9.00
2018-02-24T07:29:08.576Z,9.00
2018-02-24T07:31:36.046Z,9.00
2018-02-24T07:34:03.532Z,9.10
2018-02-24T07:36:31.010Z,9.00
2018-02-24T07:38:58.496Z,9.10
2018-02-24T07:41:26.731Z,9.20
2018-02-24T07:43:54.503Z,9.10
2018-02-24T07:46:21.983Z,9.20
2018-02-24T07:48:49.554Z,9.20
2018-02-24T07:51:17.147Z,9.20
2018-02-24T07:53:44.614Z,9.20
2018-02-24T07:56:12.136Z,9.20
2018-02-24T07:58:40.249Z,9.20
2018-02-24T08:01:07.723Z,9.30
2018-02-24T08:03:35.226Z,9.40
2018-02-24T08:06:02.733Z,9.40
2018-02-24T08:08:30.223Z,9.40
2018-02-24T08:10:57.692Z,9.50
2018-02-24T08:13:25.160Z,9.50
2018-02-24T08:15:52.642Z,9.50
2018-02-24T08:18:20.126Z,9.60
2018-02-24T08:20:47.611Z,9.60
2018-02-24T08:23:15.859Z,9.70
2018-02-24T08:25:43.367Z,9.70
2018-02-24T08:28:11.643Z,9.70
2018-02-24T08:30:39.126Z,9.70
2018-02-24T08:33:07.406Z,9.80
2018-02-24T08:35:34.910Z,9.80
2018-02-24T08:38:03.188Z,9.80
2018-02-24T08:40:31.440Z,9.80
2018-02-24T08:42:58.954Z,9.80
2018-02-24T08:45:27.199Z,9.90
2018-02-24T08:47:54.664Z,9.80
2018-02-24T08:50:22.170Z,9.80
2018-02-24T08:52:50.496Z,9.90
2018-02-24T08:55:17.974Z,9.90
2018-02-24T08:57:45.466Z,9.90
2018-02-24T09:00:12.971Z,10.00
2018-02-24T09:02:40.443Z,10.00
2018-02-24T09:05:08.712Z,10.00
2018-02-24T09:07:36.190Z,10.00
2018-02-24T09:10:03.671Z,10.00
2018-02-24T09:12:31.934Z,10.00
2018-02-24T09:14:59.403Z,9.90
2018-02-24T09:17:26.964Z,10.00
2018-02-24T09:19:54.462Z,10.00
2018-02-24T09:22:21.966Z,10.10
2018-02-24T09:24:49.515Z,10.20
2018-02-24T09:27:17.782Z,10.20
2018-02-24T09:29:45.271Z,10.20
2018-02-24T09:32:13.515Z,10.30
2018-02-24T09:34:41.775Z,10.30
2018-02-24T09:37:09.280Z,10.30
2018-02-24T09:39:37.517Z,10.30
2018-02-24T09:42:05.791Z,10.30
2018-02-24T09:44:33.264Z,10.40
2018-02-24T09:47:00.754Z,10.40
2018-02-24T09:49:28.278Z,10.60
2018-02-24T09:51:55.770Z,10.70
2018-02-24T09:54:23.266Z,11.00
2018-02-24T09:56:50.781Z,11.20
2018-02-24T09:59:18.247Z,11.40
2018-02-24T10:01:45.754Z,11.60
2018-02-24T10:04:13.258Z,11.80
2018-02-24T10:06:40.756Z,12.10
2018-02-24T10:09:08.231Z,12.40
2018-02-24T10:11:35.783Z,12.90
2018-02-24T10:14:03.270Z,13.30
2018-02-24T10:16:30.787Z,13.60
2018-02-24T10:18:59.065Z,14.50
2018-02-24T10:21:26.494Z,14.40
2018-02-24T10:23:53.979Z,15.00
2018-02-24T10:26:21.454Z,15.50
2018-02-24T10:28:48.953Z,15.80
2018-02-24T10:31:16.443Z,15.70
2018-02-24T10:33:44.011Z,15.30
2018-02-24T10:36:12.298Z,14.80
2018-02-24T10:38:40.562Z,14.50
2018-02-24T10:41:08.040Z,14.50
2018-02-24T10:43:35.542Z,14.30
2018-02-24T10:46:03.021Z,14.20
2018-02-24T10:48:30.545Z,14.10
2018-02-24T10:50:58.026Z,14.00
2018-02-24T10:53:26.275Z,13.80
2018-02-24T10:55:53.746Z,13.70
2018-02-24T10:58:21.239Z,13.70
2018-02-24T11:00:48.706Z,13.70
2018-02-24T11:03:16.182Z,13.70
2018-02-24T11:05:43.663Z,13.60
2018-02-24T11:08:11.940Z,13.30
2018-02-24T11:10:39.404Z,13.30
2018-02-24T11:13:06.902Z,13.20
2018-02-24T11:15:35.147Z,13.10
2018-02-24T11:18:02.660Z,13.10
2018-02-24T11:20:30.936Z,13.00
2018-02-24T11:22:59.193Z,13.00
2018-02-24T11:25:26.691Z,13.00
2018-02-24T11:27:54.965Z,13.30
2018-02-24T11:30:22.468Z,13.20
2018-02-24T11:32:50.712Z,13.30
2018-02-24T11:35:18.192Z,13.30
2018-02-24T11:37:45.666Z,13.20
2018-02-24T11:40:13.174Z,13.10
2018-02-24T11:42:41.418Z,13.10
2018-02-24T11:45:08.891Z,13.10
2018-02-24T11:47:36.411Z,13.40
2018-02-24T11:50:03.911Z,14.20
2018-02-24T11:52:31.386Z,14.60
2018-02-24T11:54:58.902Z,14.90
2018-02-24T11:57:27.147Z,14.60
2018-02-24T11:59:54.632Z,14.60
2018-02-24T12:02:22.111Z,14.60
2018-02-24T12:04:49.622Z,14.60
2018-02-24T12:07:17.123Z,14.80
2018-02-24T12:09:44.671Z,14.80
2018-02-24T12:12:12.171Z,14.80
2018-02-24T12:14:39.656Z,15.70
2018-02-24T12:17:07.158Z,17.10
2018-02-24T12:19:34.651Z,18.00
2018-02-24T12:22:02.167Z,18.50
2018-02-24T12:24:29.659Z,19.30
2018-02-24T12:26:57.907Z,21.00
2018-02-24T12:29:25.403Z,21.00
2018-02-24T12:31:52.882Z,21.70
2018-02-24T12:34:20.371Z,22.20
2018-02-24T12:36:48.610Z,22.80
2018-02-24T12:39:16.124Z,22.70
2018-02-24T12:41:44.388Z,23.30
2018-02-24T12:44:11.909Z,23.30
2018-02-24T12:46:39.484Z,23.80
2018-02-24T12:49:06.921Z,24.20
2018-02-24T12:51:35.520Z,24.80
2018-02-24T12:54:03.796Z,25.20
2018-02-24T12:56:31.289Z,25.10
2018-02-24T12:58:59.571Z,25.80
2018-02-24T13:01:27.811Z,26.00
2018-02-24T13:03:55.287Z,26.00
2018-02-24T13:06:22.759Z,26.20
2018-02-24T13:08:50.287Z,26.40
2018-02-24T13:11:17.737Z,26.60
2018-02-24T13:13:46.012Z,27.10
2018-02-24T13:16:13.546Z,27.10
2018-02-24T13:18:41.041Z,27.20
2018-02-24T13:21:08.578Z,27.30
2018-02-24T13:23:36.095Z,27.60
2018-02-24T13:26:04.379Z,27.80
2018-02-24T13:28:31.874Z,27.70
2018-02-24T13:31:00.132Z,28.00
2018-02-24T13:33:27.607Z,28.00
2018-02-24T13:35:55.124Z,28.00
2018-02-24T13:38:22.638Z,28.10
2018-02-24T13:40:50.118Z,28.20
2018-02-24T13:43:18.414Z,28.30
2018-02-24T13:45:45.893Z,28.30
2018-02-24T13:48:13.399Z,28.40
2018-02-24T13:50:41.623Z,28.50
2018-02-24T13:53:09.102Z,28.50
2018-02-24T13:55:36.623Z,28.50
2018-02-24T13:58:04.155Z,28.50
2018-02-24T14:00:33.127Z,28.50
2018-02-24T14:03:01.383Z,28.40
2018-02-24T14:05:28.895Z,28.40
2018-02-24T14:07:56.420Z,28.40
2018-02-24T14:10:23.947Z,28.20
2018-02-24T14:12:51.450Z,28.10
2018-02-24T14:15:19.702Z,27.30
2018-02-24T14:17:47.199Z,27.30
2018-02-24T14:20:15.444Z,25.60
2018-02-24T14:22:43.018Z,25.50
2018-02-24T14:25:10.535Z,24.90
2018-02-24T14:27:38.786Z,23.80
2018-02-24T14:30:06.266Z,23.80
2018-02-24T14:32:33.792Z,23.80
2018-02-24T14:35:01.271Z,23.70
2018-02-24T14:37:29.538Z,24.20
2018-02-24T14:39:57.782Z,24.10
2018-02-24T14:42:25.259Z,24.00
2018-02-24T14:44:52.724Z,23.90
2018-02-24T14:47:20.206Z,23.80
2018-02-24T14:49:47.739Z,23.60
2018-02-24T14:52:15.214Z,23.30
2018-02-24T14:54:42.682Z,22.80
2018-02-24T14:57:10.163Z,22.50
2018-02-24T14:59:37.656Z,22.40
2018-02-24T15:02:05.190Z,22.50
2018-02-24T15:04:32.704Z,22.90
2018-02-24T15:07:00.210Z,23.20
2018-02-24T15:09:27.682Z,23.30
2018-02-24T15:11:55.183Z,23.20
2018-02-24T15:14:22.696Z,23.00
2018-02-24T15:16:50.966Z,22.40
2018-02-24T15:19:18.453Z,22.40
2018-02-24T15:21:46.695Z,21.80
2018-02-24T15:24:14.183Z,21.80
2018-02-24T15:26:41.654Z,21.50
2018-02-24T15:29:09.143Z,21.00
2018-02-24T15:31:36.636Z,20.70
2018-02-24T15:34:04.908Z,20.20
2018-02-24T15:36:33.138Z,20.00
2018-02-24T15:39:00.604Z,20.00
2018-02-24T15:41:28.082Z,19.80
2018-02-24T15:43:55.595Z,19.60
2018-02-24T15:46:23.058Z,19.50
2018-02-24T15:48:50.540Z,19.30
2018-02-24T15:51:18.011Z,19.10
2018-02-24T15:53:45.492Z,19.00
2018-02-24T15:56:13.730Z,18.70
2018-02-24T15:58:41.211Z,18.70
2018-02-24T16:01:08.775Z,18.50
2018-02-24T16:03:36.992Z,18.30
2018-02-24T16:06:04.467Z,18.30
2018-02-24T16:08:31.955Z,18.20
2018-02-24T16:11:00.190Z,18.00
2018-02-24T16:13:27.687Z,18.00
2018-02-24T16:15:55.183Z,18.00
2018-02-24T16:18:23.418Z,17.90
2018-02-24T16:20:50.912Z,17.90
2018-02-24T16:23:18.405Z,17.70
2018-02-24T16:25:46.650Z,17.50
2018-02-24T16:28:14.176Z,17.50
2018-02-24T16:30:42.433Z,17.20
2018-02-24T16:33:10.806Z,17.20
2018-02-24T16:35:38.303Z,17.00
2018-02-24T16:38:06.559Z,16.70
2018-02-24T16:40:34.043Z,16.70
2018-02-24T16:43:01.524Z,16.60
2018-02-24T16:45:29.045Z,16.40
2018-02-24T16:47:56.543Z,16.30
2018-02-24T16:50:24.019Z,16.10
2018-02-24T16:52:51.495Z,16.00
2018-02-24T16:55:18.979Z,15.90
2018-02-24T16:57:46.460Z,15.80
2018-02-24T17:00:13.961Z,15.70
2018-02-24T17:02:41.479Z,15.60
2018-02-24T17:05:10.494Z,15.40
2018-02-24T17:07:38.051Z,15.40
2018-02-24T17:10:06.325Z,15.20
2018-02-24T17:12:33.814Z,15.20
2018-02-24T17:15:01.309Z,15.10
2018-02-24T17:17:28.783Z,15.00
2018-02-24T17:19:57.023Z,14.90
2018-02-24T17:22:24.504Z,14.80
2018-02-24T17:24:51.978Z,14.80
2018-02-24T17:27:19.454Z,14.70
2018-02-24T17:29:46.950Z,14.60
2018-02-24T17:32:15.194Z,14.50
2018-02-24T17:34:42.687Z,14.50
2018-02-24T17:37:10.170Z,14.40
2018-02-24T17:39:37.664Z,14.40
2018-02-24T17:42:05.925Z,14.30
2018-02-24T17:44:33.463Z,14.20
2018-02-24T17:47:00.981Z,14.20
2018-02-24T17:49:28.435Z,14.10
2018-02-24T17:51:55.927Z,14.00
2018-02-24T17:54:24.204Z,14.00
2018-02-24T17:56:51.694Z,13.90
2018-02-24T17:59:19.938Z,13.90
2018-02-24T18:01:47.426Z,13.80
2018-02-24T18:04:14.946Z,13.80
2018-02-24T18:06:42.434Z,13.80
2018-02-24T18:09:09.920Z,13.70
2018-02-24T18:11:37.415Z,13.70
2018-02-24T18:14:05.674Z,13.60
2018-02-24T18:16:33.172Z,13.50
2018-02-24T18:19:00.659Z,13.50
2018-02-24T18:21:28.171Z,13.50
2018-02-24T18:23:55.644Z,13.40
2018-02-24T18:26:23.163Z,13.40
2018-02-24T18:28:51.403Z,13.30
2018-02-24T18:31:18.916Z,13.30
2018-02-24T18:33:47.195Z,13.20
2018-02-24T18:36:14.713Z,13.20
2018-02-24T18:38:42.178Z,13.10
2018-02-24T18:41:09.688Z,13.10
2018-02-24T18:43:37.199Z,13.10
2018-02-24T18:46:05.462Z,13.00
2018-02-24T18:48:32.931Z,13.00
2018-02-24T18:51:00.423Z,12.90
2018-02-24T18:53:28.691Z,12.90
2018-02-24T18:55:56.166Z,12.90
2018-02-24T18:58:23.639Z,12.90
2018-02-24T19:00:51.126Z,12.80
2018-02-24T19:03:19.389Z,12.70
2018-02-24T19:05:46.930Z,12.70
2018-02-24T19:08:15.184Z,12.60
2018-02-24T19:10:42.687Z,12.60
2018-02-24T19:13:10.175Z,12.60
2018-02-24T19:15:38.443Z,12.50
2018-02-24T19:18:06.001Z,12.50
2018-02-24T19:20:33.467Z,12.50
2018-02-24T19:23:00.942Z,12.50
2018-02-24T19:25:28.435Z,12.50
2018-02-24T19:27:55.927Z,12.40
2018-02-24T19:30:23.397Z,12.40
2018-02-24T19:32:50.888Z,12.40
2018-02-24T19:35:19.125Z,12.30
2018-02-24T19:37:46.608Z,12.30
2018-02-24T19:40:14.086Z,12.30
2018-02-24T19:42:41.591Z,12.20
2018-02-24T19:45:09.832Z,12.10
2018-02-24T19:47:37.335Z,12.10
2018-02-24T19:50:05.579Z,12.10
2018-02-24T19:52:33.848Z,12.10
2018-02-24T19:55:02.070Z,12.00
2018-02-24T19:57:30.401Z,12.00
2018-02-24T19:59:58.650Z,12.00
2018-02-24T20:02:26.144Z,11.90
2018-02-24T20:04:53.632Z,11.90
2018-02-24T20:07:21.878Z,11.90
2018-02-24T20:09:49.392Z,11.90
2018-02-24T20:12:17.639Z,11.80
2018-02-24T20:14:45.123Z,11.80
2018-02-24T20:17:13.378Z,11.80
2018-02-24T20:19:40.846Z,11.80
2018-02-24T20:22:09.090Z,11.70
2018-02-24T20:24:37.358Z,11.70
2018-02-24T20:27:04.851Z,11.70
2018-02-24T20:29:33.125Z,11.70
2018-02-24T20:32:00.635Z,11.60
2018-02-24T20:34:28.136Z,11.60
2018-02-24T20:36:55.620Z,11.60
2018-02-24T20:39:23.150Z,11.50
2018-02-24T20:41:50.610Z,11.50
2018-02-24T20:44:18.121Z,11.50
2018-02-24T20:46:45.659Z,11.50
2018-02-24T20:49:13.154Z,11.40
2018-02-24T20:51:40.668Z,11.40
2018-02-24T20:54:08.943Z,11.40
2018-02-24T20:56:36.474Z,11.30
2018-02-24T20:59:03.963Z,11.30
2018-02-24T21:01:31.453Z,11.30
2018-02-24T21:03:58.955Z,11.30
2018-02-24T21:06:27.195Z,11.20
2018-02-24T21:08:54.678Z,11.20
2018-02-24T21:11:22.155Z,11.20
2018-02-24T21:13:49.650Z,11.20
2018-02-24T21:16:17.890Z,11.10
2018-02-24T21:18:45.415Z,11.10
2018-02-24T21:21:13.663Z,11.10
2018-02-24T21:23:41.166Z,11.00
2018-02-24T21:26:09.428Z,11.00
2018-02-24T21:28:36.957Z,11.00
2018-02-24T21:31:04.450Z,11.00
2018-02-24T21:33:31.947Z,11.00
2018-02-24T21:35:59.421Z,11.00
2018-02-24T21:38:27.683Z,10.90
2018-02-24T21:40:55.169Z,10.90
2018-02-24T21:43:22.675Z,10.90
2018-02-24T21:45:50.952Z,10.80
2018-02-24T21:48:19.203Z,10.80
2018-02-24T21:50:46.712Z,10.80
2018-02-24T21:53:14.964Z,10.80
2018-02-24T21:55:42.443Z,10.80
2018-02-24T21:58:09.955Z,10.70
2018-02-24T22:00:38.298Z,10.70
2018-02-24T22:03:05.794Z,10.60
2018-02-24T22:05:34.048Z,10.60
2018-02-24T22:08:01.520Z,10.60
2018-02-24T22:10:29.022Z,10.60
2018-02-24T22:12:57.276Z,10.60
2018-02-24T22:15:24.759Z,10.60
2018-02-24T22:17:52.257Z,10.60
2018-02-24T22:20:20.547Z,10.50
2018-02-24T22:22:48.835Z,10.50
2018-02-24T22:25:17.134Z,10.50
2018-02-24T22:27:45.388Z,10.50
2018-02-24T22:30:12.900Z,10.40
2018-02-24T22:32:40.407Z,10.40
2018-02-24T22:35:08.741Z,10.40
2018-02-24T22:37:36.983Z,10.40
2018-02-24T22:40:04.475Z,10.40
2018-02-24T22:42:32.079Z,10.40
2018-02-24T22:45:00.311Z,10.30
2018-02-24T22:47:33.382Z,10.30
2018-02-24T22:50:01.619Z,10.30
2018-02-24T22:52:29.123Z,10.30
2018-02-24T22:54:57.385Z,10.20
2018-02-24T22:57:24.896Z,10.20
2018-02-24T22:59:52.887Z,10.20
2018-02-24T23:02:20.386Z,10.10
2018-02-24T23:04:47.869Z,10.20
2018-02-24T23:07:15.400Z,10.10
2018-02-24T23:09:42.903Z,10.10
2018-02-24T23:12:10.396Z,10.10
2018-02-24T23:14:37.871Z,10.10
2018-02-24T23:17:05.424Z,10.00
2018-02-24T23:19:32.904Z,10.00
2018-02-24T23:22:00.398Z,10.00
2018-02-24T23:24:28.656Z,10.00
2018-02-24T23:26:56.135Z,9.90
2018-02-24T23:29:23.600Z,9.90
2018-02-24T23:31:51.065Z,9.90
2018-02-24T23:34:18.539Z,9.90
2018-02-24T23:36:46.059Z,9.90
2018-02-24T23:39:14.333Z,9.80
2018-02-24T23:41:42.600Z,9.80
2018-02-24T23:44:10.087Z,9.80
2018-02-24T23:46:38.343Z,9.80
2018-02-24T23:49:05.878Z,9.80
2018-02-24T23:51:33.391Z,9.70
2018-02-24T23:54:00.863Z,9.70
2018-02-24T23:56:28.333Z,9.80
2018-02-24T23:58:55.848Z,9.70
